createdAt,value
2018-03-14T00:02:05.280Z,19.13
2018-03-14T00:04:32.937Z,16.80
2018-03-14T00:07:01.309Z,16.63
2018-03-14T00:09:28.932Z,15.70
2018-03-14T00:11:56.969Z,16.47
2018-03-14T00:14:24.592Z,14.30
2018-03-14T00:16:52.221Z,14.27
2018-03-14T00:19:19.850Z,15.70
2018-03-14T00:21:47.894Z,14.60
2018-03-14T00:24:15.527Z,15.10
2018-03-14T00:26:43.152Z,16.40
2018-03-14T00:29:10.804Z,16.40
2018-03-14T00:31:39.200Z,17.33
2018-03-14T00:34:06.828Z,16.70
2018-03-14T00:36:34.453Z,19.70
2018-03-14T00:39:02.077Z,18.50
2018-03-14T00:41:29.727Z,19.13
2018-03-14T00:43:57.648Z,20.67
2018-03-14T00:46:25.272Z,22.73
2018-03-14T00:48:53.681Z,23.10
2018-03-14T00:51:22.076Z,23.33
2018-03-14T00:53:49.697Z,25.10
2018-03-14T00:56:17.324Z,25.47
2018-03-14T00:58:44.940Z,23.23
2018-03-14T01:01:12.568Z,25.33
2018-03-14T01:03:40.208Z,27.17
2018-03-14T01:06:07.837Z,24.53
2018-03-14T01:08:35.462Z,27.27
2018-03-14T01:11:03.081Z,28.20
2018-03-14T01:13:31.476Z,29.77
2018-03-14T01:15:59.876Z,30.73
2018-03-14T01:18:27.517Z,26.70
2018-03-14T01:20:55.132Z,29.20
2018-03-14T01:23:22.758Z,26.57
2018-03-14T01:25:51.160Z,26.23
2018-03-14T01:28:18.782Z,25.03
2018-03-14T01:30:46.444Z,26.63
2018-03-14T01:33:14.068Z,26.27
2018-03-14T01:35:41.706Z,25.47
2018-03-14T01:38:09.336Z,22.80
2018-03-14T01:40:36.964Z,21.90
2018-03-14T01:43:04.587Z,21.47
2018-03-14T01:45:32.213Z,22.03
2018-03-14T01:47:59.890Z,24.43
2018-03-14T01:50:27.492Z,23.43
2018-03-14T01:53:07.979Z,20.80
2018-03-14T01:55:35.612Z,18.83
2018-03-14T01:58:03.237Z,18.83
2018-03-14T02:00:30.882Z,18.20
2018-03-14T02:02:59.248Z,16.57
2018-03-14T02:05:26.872Z,18.80
2018-03-14T02:07:54.488Z,15.13
2018-03-14T02:10:22.110Z,15.93
2018-03-14T02:12:49.733Z,14.30
2018-03-14T02:15:17.369Z,16.17
2018-03-14T02:17:45.764Z,14.80
2018-03-14T02:20:13.392Z,14.17
2018-03-14T02:22:41.022Z,14.23
2018-03-14T02:25:08.646Z,12.97
2018-03-14T02:27:37.043Z,13.57
2018-03-14T02:30:04.657Z,14.97
2018-03-14T02:32:32.285Z,13.30
2018-03-14T02:34:59.929Z,13.97
2018-03-14T02:37:28.323Z,14.23
2018-03-14T02:39:56.720Z,15.13
2018-03-14T02:42:24.344Z,13.50
2018-03-14T02:44:51.973Z,14.40
2018-03-14T02:47:19.801Z,12.63
2018-03-14T02:49:48.193Z,13.27
2018-03-14T02:52:15.820Z,13.40
2018-03-14T02:54:43.440Z,13.10
2018-03-14T02:57:11.070Z,12.83
2018-03-14T02:59:38.755Z,13.70
2018-03-14T03:02:06.384Z,14.43
2018-03-14T03:04:34.085Z,13.53
2018-03-14T03:07:02.479Z,14.23
2018-03-14T03:09:30.103Z,14.57
2018-03-14T03:11:57.756Z,15.17
2018-03-14T03:14:25.352Z,16.07
2018-03-14T03:16:52.994Z,16.30
2018-03-14T03:19:20.629Z,16.10
2018-03-14T03:21:48.265Z,15.43
2018-03-14T03:24:16.652Z,14.60
2018-03-14T03:26:44.297Z,16.83
2018-03-14T03:29:11.905Z,17.20
2018-03-14T03:31:39.530Z,17.23
2018-03-14T03:34:07.173Z,16.70
2018-03-14T03:36:34.792Z,17.47
2018-03-14T03:39:02.431Z,15.77
2018-03-14T03:41:30.082Z,14.87
2018-03-14T03:43:57.712Z,16.83
2018-03-14T03:46:25.320Z,15.97
2018-03-14T03:48:52.949Z,17.17
2018-03-14T03:51:20.573Z,16.53
2018-03-14T03:53:48.212Z,15.87
2018-03-14T03:56:15.846Z,14.43
2018-03-14T03:58:43.481Z,16.07
2018-03-14T04:01:11.104Z,15.13
2018-03-14T04:03:38.738Z,14.83
2018-03-14T04:06:06.360Z,12.87
2018-03-14T04:08:34.757Z,13.57
2018-03-14T04:11:03.177Z,16.57
2018-03-14T04:13:30.801Z,17.67
2018-03-14T04:15:59.200Z,15.73
2018-03-14T04:18:26.821Z,16.73
2018-03-14T04:20:54.440Z,16.47
2018-03-14T04:23:22.077Z,17.20
2018-03-14T04:25:49.701Z,17.10
2018-03-14T04:28:17.334Z,15.97
2018-03-14T04:30:44.961Z,16.30
2018-03-14T04:33:12.587Z,16.77
2018-03-14T04:35:40.196Z,15.77
2018-03-14T04:38:07.819Z,13.90
2018-03-14T04:40:35.454Z,14.93
2018-03-14T04:43:03.127Z,16.17
2018-03-14T04:45:30.721Z,15.67
2018-03-14T04:47:58.348Z,15.10
2018-03-14T04:50:25.973Z,16.40
2018-03-14T04:52:53.606Z,16.53
2018-03-14T04:55:21.228Z,16.20
2018-03-14T04:57:48.852Z,15.87
2018-03-14T05:00:16.485Z,14.73
2018-03-14T05:02:44.110Z,17.00
2018-03-14T05:05:11.733Z,15.10
2018-03-14T05:07:39.372Z,15.03
2018-03-14T05:10:08.164Z,14.70
2018-03-14T05:12:35.800Z,16.07
2018-03-14T05:15:03.489Z,15.67
2018-03-14T05:17:31.107Z,15.53
2018-03-14T05:19:58.733Z,16.10
2018-03-14T05:22:27.145Z,15.87
2018-03-14T05:24:54.976Z,15.07
2018-03-14T05:27:22.685Z,15.97
2018-03-14T05:29:50.304Z,15.77
2018-03-14T05:32:17.941Z,15.90
2018-03-14T05:34:45.569Z,17.30
2018-03-14T05:37:13.192Z,17.23
2018-03-14T05:39:41.598Z,16.63
2018-03-14T05:42:09.985Z,16.20
2018-03-14T05:44:37.612Z,17.93
2018-03-14T05:47:05.236Z,16.37
2018-03-14T05:49:32.890Z,16.40
2018-03-14T05:52:01.311Z,16.80
2018-03-14T05:54:28.936Z,17.27
2018-03-14T05:56:56.565Z,15.53
2018-03-14T05:59:24.196Z,18.43
2018-03-14T06:01:51.815Z,16.80
2018-03-14T06:04:20.228Z,16.53
2018-03-14T06:06:47.864Z,16.80
2018-03-14T06:09:15.489Z,16.70
2018-03-14T06:11:43.149Z,16.17
2018-03-14T06:14:10.777Z,17.37
2018-03-14T06:16:38.413Z,18.03
2018-03-14T06:19:06.033Z,16.80
2018-03-14T06:21:33.681Z,18.57
2018-03-14T06:24:01.316Z,17.47
2018-03-14T06:26:28.949Z,16.93
2018-03-14T06:28:56.568Z,19.17
2018-03-14T06:31:24.948Z,18.23
2018-03-14T06:33:53.377Z,18.47
2018-03-14T06:36:21.005Z,18.67
2018-03-14T06:38:49.384Z,18.30
2018-03-14T06:41:17.018Z,19.83
2018-03-14T06:43:44.646Z,17.70
2018-03-14T06:46:12.256Z,19.90
2018-03-14T06:48:40.649Z,18.93
2018-03-14T06:51:08.306Z,19.77
2018-03-14T06:53:37.444Z,16.37
2018-03-14T06:56:05.064Z,17.80
2018-03-14T06:58:44.544Z,17.13
2018-03-14T07:01:24.322Z,18.03
2018-03-14T07:04:13.570Z,17.33
2018-03-14T07:06:41.195Z,17.20
2018-03-14T07:09:09.583Z,17.40
2018-03-14T07:11:37.985Z,16.57
2018-03-14T07:14:05.613Z,14.47
2018-03-14T07:16:33.356Z,15.97
2018-03-14T07:19:00.983Z,14.17
2018-03-14T07:21:28.608Z,15.43
2018-03-14T07:23:56.264Z,13.43
2018-03-14T07:26:23.918Z,13.33
2018-03-14T07:28:51.533Z,12.03
2018-03-14T07:31:19.933Z,13.80
2018-03-14T07:33:47.557Z,12.80
2018-03-14T07:36:15.208Z,11.73
2018-03-14T07:38:42.836Z,10.93
2018-03-14T07:41:10.507Z,11.80
2018-03-14T07:43:38.134Z,11.53
2018-03-14T07:46:05.761Z,11.53
2018-03-14T07:48:33.393Z,11.20
2018-03-14T07:51:01.013Z,9.90
2018-03-14T07:53:28.630Z,12.10
2018-03-14T07:55:56.290Z,11.20
2018-03-14T07:58:24.681Z,11.57
2018-03-14T08:00:53.132Z,12.10
2018-03-14T08:03:20.744Z,9.97
2018-03-14T08:05:48.434Z,9.30
2018-03-14T08:08:16.828Z,9.50
2018-03-14T08:10:44.465Z,9.03
2018-03-14T08:13:12.085Z,9.07
2018-03-14T08:15:39.956Z,8.17
2018-03-14T08:18:07.573Z,9.73
2018-03-14T08:20:35.217Z,8.93
2018-03-14T08:23:02.837Z,10.70
2018-03-14T08:25:30.483Z,8.07
2018-03-14T08:27:58.128Z,8.07
2018-03-14T08:30:25.753Z,8.20
2018-03-14T08:32:53.377Z,8.43
2018-03-14T08:35:21.005Z,8.10
2018-03-14T08:37:49.390Z,9.10
2018-03-14T08:40:17.008Z,8.40
2018-03-14T08:42:44.633Z,9.50
2018-03-14T08:45:12.256Z,11.20
2018-03-14T08:47:39.932Z,10.23
2018-03-14T08:50:07.517Z,8.73
2018-03-14T08:52:35.146Z,9.73
2018-03-14T08:55:04.280Z,9.07
2018-03-14T08:57:31.913Z,7.80
2018-03-14T08:59:59.528Z,6.40
2018-03-14T09:02:27.180Z,6.10
2018-03-14T09:04:54.800Z,6.43
2018-03-14T09:07:22.440Z,6.77
2018-03-14T09:09:50.785Z,7.30
2018-03-14T09:12:19.177Z,6.17
2018-03-14T09:14:46.792Z,6.37
2018-03-14T09:17:14.408Z,3.90
2018-03-14T09:19:42.790Z,3.20
2018-03-14T09:22:10.421Z,3.43
2018-03-14T09:24:38.042Z,3.70
2018-03-14T09:27:05.658Z,4.80
2018-03-14T09:29:33.275Z,4.07
2018-03-14T09:32:00.893Z,3.40
2018-03-14T09:34:28.504Z,3.00
2018-03-14T09:36:56.125Z,3.80
2018-03-14T09:39:23.740Z,3.20
2018-03-14T09:41:51.368Z,3.73
2018-03-14T09:44:18.980Z,3.20
2018-03-14T09:46:46.604Z,3.70
2018-03-14T09:49:14.238Z,3.40
2018-03-14T09:51:41.845Z,3.57
2018-03-14T09:54:09.463Z,3.20
2018-03-14T09:56:37.080Z,4.23
2018-03-14T09:59:05.454Z,4.03
2018-03-14T10:01:33.828Z,3.80
2018-03-14T10:04:02.265Z,4.43
2018-03-14T10:06:29.880Z,4.30
2018-03-14T10:08:58.264Z,4.30
2018-03-14T10:11:26.640Z,4.07
2018-03-14T10:13:54.256Z,4.07
2018-03-14T10:16:21.880Z,4.70
2018-03-14T10:18:50.260Z,4.17
2018-03-14T10:21:22.397Z,4.37
2018-03-14T10:23:50.013Z,4.13
2018-03-14T10:26:17.642Z,4.10
2018-03-14T10:28:45.273Z,4.10
2018-03-14T10:31:12.885Z,4.53
2018-03-14T10:33:41.269Z,4.57
2018-03-14T10:36:09.660Z,4.57
2018-03-14T10:38:38.040Z,4.80
2018-03-14T10:41:06.445Z,4.53
2018-03-14T10:43:34.825Z,5.07
2018-03-14T10:46:03.204Z,5.33
2018-03-14T10:48:30.829Z,4.43
2018-03-14T10:50:58.481Z,4.40
2018-03-14T10:53:26.088Z,4.77
2018-03-14T10:55:54.473Z,5.03
2018-03-14T10:58:22.856Z,5.57
2018-03-14T11:00:51.840Z,5.63
2018-03-14T11:03:19.443Z,5.90
2018-03-14T11:05:47.056Z,5.57
2018-03-14T11:08:14.696Z,5.40
2018-03-14T11:10:42.302Z,5.43
2018-03-14T11:13:09.927Z,5.37
2018-03-14T11:15:37.541Z,5.83
2018-03-14T11:18:05.203Z,5.73
2018-03-14T11:20:32.768Z,5.20
2018-03-14T11:23:00.444Z,6.03
2018-03-14T11:25:28.828Z,6.30
2018-03-14T11:27:56.787Z,5.67
2018-03-14T11:30:24.404Z,5.57
2018-03-14T11:32:52.022Z,5.30
2018-03-14T11:35:19.646Z,5.40
2018-03-14T11:37:47.274Z,5.00
2018-03-14T11:40:20.613Z,5.20
2018-03-14T11:42:48.243Z,5.03
2018-03-14T11:45:24.440Z,4.90
2018-03-14T11:47:52.065Z,5.20
2018-03-14T11:50:20.462Z,5.73
2018-03-14T11:52:48.093Z,5.50
2018-03-14T11:55:15.716Z,5.40
2018-03-14T11:57:43.352Z,5.27
2018-03-14T12:00:11.066Z,5.10
2018-03-14T12:02:38.692Z,5.40
2018-03-14T12:05:06.346Z,6.03
2018-03-14T12:07:33.943Z,5.50
2018-03-14T12:10:01.574Z,5.40
2018-03-14T12:12:29.193Z,6.10
2018-03-14T12:14:56.823Z,5.70
2018-03-14T12:17:24.440Z,5.43
2018-03-14T12:19:52.060Z,5.50
2018-03-14T12:22:19.696Z,5.47
2018-03-14T12:24:48.090Z,4.93
2018-03-14T12:27:16.472Z,5.67
2018-03-14T12:29:44.110Z,4.80
2018-03-14T12:32:11.731Z,5.30
2018-03-14T12:34:39.351Z,4.50
2018-03-14T12:37:06.987Z,5.00
2018-03-14T12:39:34.685Z,5.03
2018-03-14T12:42:02.299Z,4.50
2018-03-14T12:44:29.955Z,4.50
2018-03-14T12:46:58.332Z,4.10
2018-03-14T12:49:25.952Z,4.20
2018-03-14T12:52:00.257Z,5.23
2018-03-14T12:54:27.873Z,4.33
2018-03-14T12:56:55.550Z,4.30
2018-03-14T12:59:23.138Z,4.33
2018-03-14T13:01:50.757Z,4.17
2018-03-14T13:04:19.145Z,4.27
2018-03-14T13:06:47.532Z,5.03
2018-03-14T13:09:15.929Z,4.60
2018-03-14T13:11:43.588Z,4.73
2018-03-14T13:14:11.173Z,5.20
2018-03-14T13:16:38.792Z,5.20
2018-03-14T13:19:06.417Z,5.83
2018-03-14T13:21:34.048Z,5.70
2018-03-14T13:24:02.432Z,6.07
2018-03-14T13:26:30.065Z,5.90
2018-03-14T13:28:57.693Z,6.00
2018-03-14T13:31:25.420Z,5.27
2018-03-14T13:33:53.047Z,5.73
2018-03-14T13:36:20.704Z,5.27
2018-03-14T13:38:48.326Z,5.93
2018-03-14T13:41:16.130Z,5.50
2018-03-14T13:43:43.749Z,5.33
2018-03-14T13:46:11.755Z,5.07
2018-03-14T13:48:39.380Z,5.30
2018-03-14T13:51:07.015Z,5.20
2018-03-14T13:53:34.637Z,5.73
2018-03-14T13:56:03.029Z,5.97
2018-03-14T13:58:30.652Z,6.33
2018-03-14T14:00:58.308Z,7.40
2018-03-14T14:03:26.042Z,8.33
2018-03-14T14:05:53.661Z,7.83
2018-03-14T14:08:21.285Z,7.83
2018-03-14T14:10:48.917Z,7.33
2018-03-14T14:13:17.308Z,8.70
2018-03-14T14:15:44.941Z,8.63
2018-03-14T14:18:12.564Z,8.77
2018-03-14T14:20:40.197Z,8.83
2018-03-14T14:23:07.822Z,8.97
2018-03-14T14:25:35.953Z,9.40
2018-03-14T14:28:03.833Z,11.13
2018-03-14T14:30:31.533Z,10.90
2018-03-14T14:32:59.884Z,10.77
2018-03-14T14:35:27.513Z,10.23
2018-03-14T14:37:55.929Z,10.60
2018-03-14T14:40:23.565Z,10.33
2018-03-14T14:42:51.209Z,9.87
2018-03-14T14:45:18.828Z,9.70
2018-03-14T14:47:46.453Z,9.80
2018-03-14T14:50:14.073Z,9.73
2018-03-14T14:52:41.714Z,9.00
2018-03-14T14:55:09.337Z,8.57
2018-03-14T14:57:36.990Z,8.67
2018-03-14T15:00:04.612Z,8.70
2018-03-14T15:02:32.232Z,8.97
2018-03-14T15:04:59.864Z,9.10
2018-03-14T15:07:27.488Z,8.77
2018-03-14T15:09:55.899Z,8.77
2018-03-14T15:12:24.279Z,9.70
2018-03-14T15:14:51.906Z,10.40
2018-03-14T15:17:19.535Z,10.23
2018-03-14T15:19:47.168Z,10.10
2018-03-14T15:22:14.805Z,10.20
2018-03-14T15:24:42.437Z,10.63
2018-03-14T15:27:10.072Z,11.40
2018-03-14T15:29:37.702Z,10.10
2018-03-14T15:32:05.336Z,10.20
2018-03-14T15:34:32.997Z,9.57
2018-03-14T15:37:00.637Z,9.47
2018-03-14T15:39:28.277Z,11.40
2018-03-14T15:42:00.956Z,10.43
2018-03-14T15:44:28.565Z,9.93
2018-03-14T15:46:56.195Z,10.17
2018-03-14T15:49:24.597Z,11.93
2018-03-14T15:51:52.242Z,11.37
2018-03-14T15:54:20.636Z,11.37
2018-03-14T15:56:49.053Z,11.57
2018-03-14T15:59:16.702Z,12.20
2018-03-14T16:01:44.340Z,12.13
2018-03-14T16:04:12.735Z,11.57
2018-03-14T16:06:41.137Z,11.83
2018-03-14T16:09:08.782Z,12.37
2018-03-14T16:11:36.435Z,12.70
2018-03-14T16:14:04.064Z,12.33
2018-03-14T16:16:31.696Z,13.20
2018-03-14T16:18:59.348Z,13.60
2018-03-14T16:21:27.748Z,13.53
2018-03-14T16:23:55.380Z,13.73
2018-03-14T16:26:23.029Z,14.53
2018-03-14T16:28:50.656Z,12.90
2018-03-14T16:31:18.284Z,12.37
2018-03-14T16:33:46.711Z,14.43
2018-03-14T16:36:14.337Z,13.80
2018-03-14T16:38:42.728Z,13.43
2018-03-14T16:41:26.155Z,14.20
2018-03-14T16:43:54.545Z,14.30
2018-03-14T16:46:22.218Z,15.60
2018-03-14T16:48:50.626Z,15.63
2018-03-14T16:51:18.245Z,15.70
2018-03-14T16:53:46.661Z,14.57
2018-03-14T16:56:14.293Z,15.20
2018-03-14T16:58:41.986Z,15.63
2018-03-14T17:01:09.620Z,14.90
2018-03-14T17:03:37.244Z,15.20
2018-03-14T17:06:04.865Z,16.80
2018-03-14T17:08:33.261Z,15.50
2018-03-14T17:11:00.900Z,15.23
2018-03-14T17:13:28.529Z,15.87
2018-03-14T17:15:56.181Z,16.10
2018-03-14T17:18:23.913Z,16.23
2018-03-14T17:20:52.341Z,15.37
2018-03-14T17:23:19.956Z,16.20
2018-03-14T17:25:47.598Z,16.43
2018-03-14T17:28:15.208Z,16.63
2018-03-14T17:30:42.870Z,16.67
2018-03-14T17:33:11.260Z,17.33
2018-03-14T17:35:38.876Z,16.87
2018-03-14T17:38:06.517Z,17.53
2018-03-14T17:40:34.142Z,17.67
2018-03-14T17:43:01.800Z,17.03
2018-03-14T17:45:29.420Z,16.93
2018-03-14T17:47:57.052Z,18.10
2018-03-14T17:50:27.621Z,18.90
2018-03-14T17:52:55.244Z,19.13
2018-03-14T17:55:23.648Z,18.37
2018-03-14T17:57:51.283Z,17.80
2018-03-14T18:00:19.125Z,21.03
2018-03-14T18:02:46.773Z,22.60
2018-03-14T18:05:14.392Z,20.67
2018-03-14T18:07:42.776Z,19.60
2018-03-14T18:10:11.176Z,18.80
2018-03-14T18:12:38.808Z,18.93
2018-03-14T18:15:06.475Z,18.37
2018-03-14T18:17:34.153Z,19.63
2018-03-14T18:20:01.805Z,19.40
2018-03-14T18:22:29.436Z,19.17
2018-03-14T18:24:57.060Z,18.33
2018-03-14T18:27:25.455Z,19.13
2018-03-14T18:29:54.118Z,18.83
2018-03-14T18:32:21.743Z,18.23
2018-03-14T18:34:49.394Z,18.93
2018-03-14T18:37:17.004Z,20.20
2018-03-14T18:39:44.633Z,19.83
2018-03-14T18:42:12.272Z,18.93
2018-03-14T18:44:39.896Z,19.30
2018-03-14T18:47:07.586Z,19.10
2018-03-14T18:49:35.204Z,18.87
2018-03-14T18:52:02.835Z,20.50
2018-03-14T18:54:31.225Z,18.77
2018-03-14T18:56:58.954Z,18.07
2018-03-14T18:59:26.594Z,18.70
2018-03-14T19:01:54.228Z,18.93
2018-03-14T19:04:21.852Z,28.10
2018-03-14T19:06:49.478Z,17.90
2018-03-14T19:09:17.160Z,19.07
2018-03-14T19:11:44.788Z,17.67
2018-03-14T19:14:12.426Z,17.47
2018-03-14T19:16:40.063Z,16.93
2018-03-14T19:19:07.689Z,16.87
2018-03-14T19:21:35.325Z,17.00
2018-03-14T19:24:02.958Z,15.57
2018-03-14T19:26:30.587Z,16.33
2018-03-14T19:28:58.212Z,15.60
2018-03-14T19:31:25.841Z,15.93
2018-03-14T19:33:53.464Z,16.10
2018-03-14T19:36:21.116Z,15.73
2018-03-14T19:38:48.714Z,14.93
2018-03-14T19:41:16.355Z,15.83
2018-03-14T19:43:43.976Z,15.30
2018-03-14T19:46:11.603Z,15.43
2018-03-14T19:48:40.002Z,16.13
2018-03-14T19:51:07.621Z,15.57
2018-03-14T19:53:35.236Z,15.93
2018-03-14T19:56:02.865Z,16.97
2018-03-14T19:58:30.497Z,17.30
2018-03-14T20:00:58.120Z,17.03
2018-03-14T20:03:25.748Z,20.87
2018-03-14T20:05:53.368Z,18.67
2018-03-14T20:08:21.237Z,18.97
2018-03-14T20:10:48.857Z,18.50
2018-03-14T20:13:16.487Z,17.83
2018-03-14T20:15:44.117Z,17.97
2018-03-14T20:18:12.517Z,17.70
2018-03-14T20:20:40.167Z,17.77
2018-03-14T20:23:07.956Z,16.00
2018-03-14T20:25:35.589Z,16.33
2018-03-14T20:28:03.213Z,17.73
2018-03-14T20:30:30.868Z,16.93
2018-03-14T20:32:58.481Z,16.97
2018-03-14T20:35:26.125Z,18.03
2018-03-14T20:37:53.809Z,19.30
2018-03-14T20:40:21.450Z,18.63
2018-03-14T20:42:49.106Z,20.17
2018-03-14T20:45:16.743Z,21.67
2018-03-14T20:47:45.129Z,22.13
2018-03-14T20:50:12.768Z,18.47
2018-03-14T20:52:41.173Z,18.30
2018-03-14T20:55:08.869Z,17.50
2018-03-14T20:57:36.499Z,17.20
2018-03-14T21:00:04.133Z,17.03
2018-03-14T21:02:31.765Z,16.47
2018-03-14T21:04:59.401Z,17.10
2018-03-14T21:07:27.808Z,17.97
2018-03-14T21:09:55.420Z,16.30
2018-03-14T21:12:23.056Z,17.23
2018-03-14T21:14:50.673Z,16.83
2018-03-14T21:17:19.069Z,17.83
2018-03-14T21:19:46.736Z,16.87
2018-03-14T21:22:14.365Z,15.60
2018-03-14T21:24:41.988Z,16.73
2018-03-14T21:27:09.616Z,17.93
2018-03-14T21:29:38.017Z,16.60
2018-03-14T21:32:05.637Z,16.70
2018-03-14T21:34:33.261Z,17.73
2018-03-14T21:37:00.888Z,17.73
2018-03-14T21:39:28.520Z,17.23
2018-03-14T21:41:56.159Z,16.47
2018-03-14T21:44:23.780Z,17.93
2018-03-14T21:46:51.422Z,14.73
2018-03-14T21:49:19.049Z,17.47
2018-03-14T21:51:46.704Z,15.77
2018-03-14T21:54:14.313Z,17.13
2018-03-14T21:56:41.935Z,16.83
2018-03-14T21:59:10.324Z,17.37
2018-03-14T22:01:56.732Z,18.20
2018-03-14T22:04:24.375Z,17.90
2018-03-14T22:06:51.987Z,18.70
2018-03-14T22:09:19.602Z,17.27
2018-03-14T22:11:48.001Z,18.83
2018-03-14T22:14:15.629Z,17.93
2018-03-14T22:16:43.249Z,20.10
2018-03-14T22:19:10.884Z,18.20
2018-03-14T22:21:39.268Z,19.27
2018-03-14T22:24:07.669Z,19.40
2018-03-14T22:26:35.285Z,18.73
2018-03-14T22:29:02.930Z,16.93
2018-03-14T22:31:30.548Z,18.93
2018-03-14T22:33:58.941Z,17.40
2018-03-14T22:36:27.328Z,18.00
2018-03-14T22:38:55.728Z,18.10
2018-03-14T22:41:23.352Z,17.97
2018-03-14T22:43:50.992Z,16.63
2018-03-14T22:46:18.612Z,16.77
2018-03-14T22:48:46.241Z,17.93
2018-03-14T22:51:13.865Z,16.67
2018-03-14T22:53:41.512Z,16.57
2018-03-14T22:56:09.147Z,16.43
2018-03-14T22:58:36.789Z,16.63
2018-03-14T23:01:04.409Z,15.90
2018-03-14T23:03:32.032Z,16.87
2018-03-14T23:05:59.676Z,15.87
2018-03-14T23:08:27.317Z,19.97
2018-03-14T23:10:54.932Z,17.60
2018-03-14T23:13:23.485Z,16.27
2018-03-14T23:15:51.118Z,17.47
2018-03-14T23:18:18.737Z,17.17
2018-03-14T23:20:46.357Z,17.77
2018-03-14T23:23:13.992Z,16.67
2018-03-14T23:25:41.625Z,16.57
2018-03-14T23:28:09.267Z,16.00
2018-03-14T23:30:36.897Z,19.13
2018-03-14T23:33:04.535Z,19.00
2018-03-14T23:35:32.153Z,21.10
2018-03-14T23:37:59.772Z,20.60
2018-03-14T23:40:27.404Z,20.47
2018-03-14T23:42:55.041Z,18.20
2018-03-14T23:45:23.429Z,17.47
2018-03-14T23:47:51.072Z,18.60
2018-03-14T23:50:18.681Z,19.43
2018-03-14T23:52:46.300Z,20.10
2018-03-14T23:55:13.920Z,19.87
2018-03-14T23:57:41.597Z,21.27
